Time;durP1;ratioP1;P1;durP2;ratioP2;P2;SDS_P1;SDS_P2;PMS_P1;PMS_P2;Temp;Humidity;BMP_temperature;BMP_pressure;BME280_temperature;BME280_humidity;BME280_pressure;Samples;Min_cycle;Max_cycle;Signal;HPM_P1;HPM_P2
2024/01/31 00:02:14;;;;;;;;;;;;;;;;;;5043716;28;20516;-65
2024/01/31 00:04:40;;;;;;;;;;;;;;;;;;5027016;28;19974;-66
2024/01/31 00:07:05;;;;;;;;;;;;;;;;;;5031176;28;19956;-66
2024/01/31 00:09:31;;;;;;;;;;;;;;;;;;5046263;28;19967;-66
2024/01/31 00:11:57;;;;;;;;;;;;;;;;;;5047617;28;19924;-65
2024/01/31 00:14:23;;;;;;;;;;;;;;;;;;5023716;28;19948;-65
2024/01/31 00:16:51;;;;;;;;;;;;;;;;;;5044334;28;20585;-66
2024/01/31 00:19:17;;;;;;;;;;;;;;;;;;5046623;28;20016;-66
2024/01/31 00:21:42;;;;;;;;;;;;;;;;;;5033995;28;20417;-67
2024/01/31 00:24:09;;;;;;;;;;;;;;;;;;5044442;28;19925;-67
2024/01/31 00:26:35;;;;;;;;;;;;;;;;;;5047632;28;20281;-65
2024/01/31 00:29:01;;;;;;;;;;;;;;;;;;5044139;28;19924;-66
2024/01/31 00:31:27;;;;;;;;;;;;;;;;;;5041938;28;19925;-66
2024/01/31 00:33:54;;;;;;;;;;;;;;;;;;5043534;28;19929;-66
2024/01/31 00:36:20;;;;;;;;;;;;;;;;;;5031124;28;19925;-66
2024/01/31 00:38:46;;;;;;;;;;;;;;;;;;5041251;28;19924;-67
2024/01/31 00:41:12;;;;;;;;;;;;;;;;;;5048857;28;20385;-66
2024/01/31 00:43:37;;;;;;;;;;;;;;;;;;5048084;28;19928;-66
2024/01/31 00:46:04;;;;;;;;;;;;;;;;;;5044529;28;19925;-66
2024/01/31 00:48:32;;;;;;;;;;;;;;;;;;5047659;28;19936;-66
2024/01/31 00:50:58;;;;;;;;;;;;;;;;;;5041224;28;19921;-67
2024/01/31 00:53:24;;;;;;;;;;;;;;;;;;5047866;28;19925;-65
2024/01/31 00:55:50;;;;;;;;;;;;;;;;;;5030198;28;19928;-65
2024/01/31 00:58:16;;;;;;;;;;;;;;;;;;5050740;28;19929;-65
2024/01/31 01:00:42;;;;;;;;;;;;;;;;;;5041626;28;19928;-65
2024/01/31 01:03:08;;;;;;;;;;;;;;;;;;5053995;28;19928;-65
2024/01/31 01:05:33;;;;;;;;;;;;;;;;;;5054627;28;19925;-66
2024/01/31 01:08:00;;;;;;;;;;;;;;;;;;5054907;28;19932;-67
2024/01/31 01:10:27;;;;;;;;;;;;;;;;;;5052746;28;20328;-66
2024/01/31 01:12:53;;;;;;;;;;;;;;;;;;5045394;28;19932;-66
2024/01/31 01:15:19;;;;;;;;;;;;;;;;;;5052683;28;19932;-66
2024/01/31 01:17:45;;;;;;;;;;;;;;;;;;5049002;28;20386;-67
2024/01/31 01:20:11;;;;;;;;;;;;;;;;;;5048369;28;20032;-67
2024/01/31 01:22:38;;;;;;;;;;;;;;;;;;5045133;28;19921;-67
2024/01/31 01:25:04;;;;;;;;;;;;;;;;;;5042812;28;19928;-67
2024/01/31 01:27:30;;;;;;;;;;;;;;;;;;5054952;28;19921;-67
2024/01/31 01:29:56;;;;;;;;;;;;;;;;;;5029863;28;20405;-67
2024/01/31 01:32:22;;;;;;;;;;;;;;;;;;5034748;28;19959;-67
2024/01/31 01:34:48;;;;;;;;;;;;;;;;;;5053942;28;19979;-67
2024/01/31 01:37:14;;;;;;;;;;;;;;;;;;5046689;28;20015;-64
2024/01/31 01:39:40;;;;;;;;;;;;;;;;;;5037074;28;19964;-66
2024/01/31 01:42:06;;;;;;;;;;;;;;;;;;5043275;28;20020;-66
2024/01/31 01:44:32;;;;;;;;;;;;;;;;;;5053613;28;19931;-66
2024/01/31 01:46:58;;;;;;;;;;;;;;;;;;5050223;28;20016;-66
2024/01/31 01:49:23;;;;;;;;;;;;;;;;;;5054023;28;19921;-66
2024/01/31 01:51:49;;;;;;;;;;;;;;;;;;5054054;28;19921;-66
2024/01/31 01:54:15;;;;;;;;;;;;;;;;;;5052406;28;20019;-66
2024/01/31 01:56:41;;;;;;;;;;;;;;;;;;5052093;28;19963;-65
2024/01/31 01:59:07;;;;;;;;;;;;;;;;;;5053636;28;19921;-67
2024/01/31 02:01:33;;;;;;;;;;;;;;;;;;5054045;28;19924;-66
2024/01/31 02:03:59;;;;;;;;;;;;;;;;;;5047845;28;19970;-65
2024/01/31 02:06:25;;;;;;;;;;;;;;;;;;5051167;28;19980;-67
2024/01/31 02:08:51;;;;;;;;;;;;;;;;;;5051355;28;19959;-66
2024/01/31 02:11:17;;;;;;;;;;;;;;;;;;5046655;28;20410;-66
2024/01/31 02:13:43;;;;;;;;;;;;;;;;;;5048828;28;19960;-66
2024/01/31 02:16:08;;;;;;;;;;;;;;;;;;5049587;28;19967;-67
2024/01/31 02:18:34;;;;;;;;;;;;;;;;;;5048556;28;20061;-66
2024/01/31 02:21:00;;;;;;;;;;;;;;;;;;5032809;28;20354;-66
2024/01/31 02:23:26;;;;;;;;;;;;;;;;;;5046982;28;20513;-66
2024/01/31 02:25:52;;;;;;;;;;;;;;;;;;5049951;28;19963;-67
2024/01/31 02:28:18;;;;;;;;;;;;;;;;;;5049118;28;19929;-67
2024/01/31 02:30:44;;;;;;;;;;;;;;;;;;5046810;28;19921;-67
2024/01/31 02:33:10;;;;;;;;;;;;;;;;;;5040059;28;19928;-67
2024/01/31 02:35:36;;;;;;;;;;;;;;;;;;5052283;28;20130;-67
2024/01/31 02:38:02;;;;;;;;;;;;;;;;;;5051614;28;19974;-67
2024/01/31 02:40:31;;;;;;;;;;;;;;;;;;5045806;28;19932;-67
2024/01/31 02:42:57;;;;;;;;;;;;;;;;;;5050481;28;19976;-67
2024/01/31 02:45:23;;;;;;;;;;;;;;;;;;5027244;28;19927;-67
2024/01/31 02:47:49;;;;;;;;;;;;;;;;;;5051969;28;19921;-67
2024/01/31 02:50:15;;;;;;;;;;;;;;;;;;5050025;28;19921;-67
2024/01/31 02:52:41;;;;;;;;;;;;;;;;;;5048804;28;20374;-67
2024/01/31 02:55:06;;;;;;;;;;;;;;;;;;5048788;28;19936;-66
2024/01/31 02:57:34;;;;;;;;;;;;;;;;;;5031530;28;19924;-66
2024/01/31 03:00:00;;;;;;;;;;;;;;;;;;5049218;28;19928;-67
2024/01/31 03:02:26;;;;;;;;;;;;;;;;;;5048869;28;19935;-67
2024/01/31 03:04:52;;;;;;;;;;;;;;;;;;5049932;28;19924;-65
2024/01/31 03:07:18;;;;;;;;;;;;;;;;;;5047967;28;20261;-66
2024/01/31 03:09:45;;;;;;;;;;;;;;;;;;5050042;28;20363;-66
2024/01/31 03:12:11;;;;;;;;;;;;;;;;;;5017749;28;19964;-66
2024/01/31 03:14:37;;;;;;;;;;;;;;;;;;5006615;28;19957;-67
2024/01/31 03:17:03;;;;;;;;;;;;;;;;;;5020112;28;19921;-65
2024/01/31 03:19:28;;;;;;;;;;;;;;;;;;5001816;28;19927;-66
2024/01/31 03:21:54;;;;;;;;;;;;;;;;;;5010112;28;19926;-66
2024/01/31 03:24:20;;;;;;;;;;;;;;;;;;5010900;28;20374;-66
2024/01/31 03:26:46;;;;;;;;;;;;;;;;;;5009837;28;20538;-67
2024/01/31 03:29:12;;;;;;;;;;;;;;;;;;5011836;28;19922;-67
2024/01/31 03:31:38;;;;;;;;;;;;;;;;;;5007259;28;19925;-67
2024/01/31 03:34:07;;;;;;;;;;;;;;;;;;5006764;28;20032;-65
2024/01/31 03:36:33;;;;;;;;;;;;;;;;;;5009502;28;19928;-65
2024/01/31 03:38:59;;;;;;;;;;;;;;;;;;5011711;28;19942;-65
2024/01/31 03:41:25;;;;;;;;;;;;;;;;;;5008620;28;20548;-66
2024/01/31 03:43:51;;;;;;;;;;;;;;;;;;5009696;28;20531;-66
2024/01/31 03:46:17;;;;;;;;;;;;;;;;;;5009928;28;19925;-67
2024/01/31 03:48:43;;;;;;;;;;;;;;;;;;5009104;28;19952;-67
2024/01/31 03:51:09;;;;;;;;;;;;;;;;;;5010075;28;19959;-67
2024/01/31 03:53:35;;;;;;;;;;;;;;;;;;5007595;28;19997;-66
2024/01/31 03:56:01;;;;;;;;;;;;;;;;;;5009148;28;19925;-67
2024/01/31 03:58:27;;;;;;;;;;;;;;;;;;5004056;28;19925;-67
2024/01/31 04:00:53;;;;;;;;;;;;;;;;;;5002623;28;20380;-67
2024/01/31 04:03:20;;;;;;;;;;;;;;;;;;5009180;28;20394;-67
2024/01/31 04:05:46;;;;;;;;;;;;;;;;;;5004331;28;20410;-67
2024/01/31 04:08:12;;;;;;;;;;;;;;;;;;5007355;28;19925;-66
2024/01/31 04:10:38;;;;;;;;;;;;;;;;;;5010363;28;19933;-66
2024/01/31 04:13:04;;;;;;;;;;;;;;;;;;5042221;28;19936;-66
2024/01/31 04:15:30;;;;;;;;;;;;;;;;;;5045555;28;19920;-66
2024/01/31 04:17:56;;;;;;;;;;;;;;;;;;5049276;28;19931;-66
2024/01/31 04:20:22;;;;;;;;;;;;;;;;;;5048304;28;19968;-67
2024/01/31 04:22:48;;;;;;;;;;;;;;;;;;5049940;28;20402;-65
2024/01/31 04:25:14;;;;;;;;;;;;;;;;;;5043135;28;19920;-67
2024/01/31 04:27:39;;;;;;;;;;;;;;;;;;5061855;28;19927;-67
2024/01/31 04:30:05;;;;;;;;;;;;;;;;;;5054268;28;20017;-67
2024/01/31 04:32:31;;;;;;;;;;;;;;;;;;5051927;28;19983;-66
2024/01/31 04:34:57;;;;;;;;;;;;;;;;;;5048912;28;20024;-66
2024/01/31 04:37:23;;;;;;;;;;;;;;;;;;5053261;28;20325;-66
2024/01/31 04:39:51;;;;;;;;;;;;;;;;;;5055586;28;19925;-67
2024/01/31 04:42:17;;;;;;;;;;;;;;;;;;5055184;28;19932;-66
2024/01/31 04:44:45;;;;;;;;;;;;;;;;;;5062572;28;19925;-65
2024/01/31 04:47:11;;;;;;;;;;;;;;;;;;5054990;28;19971;-65
2024/01/31 04:49:37;;;;;;;;;;;;;;;;;;5053625;28;19924;-65
2024/01/31 04:52:03;;;;;;;;;;;;;;;;;;5052373;28;19921;-65
2024/01/31 04:54:29;;;;;;;;;;;;;;;;;;5054872;28;20058;-65
2024/01/31 04:56:55;;;;;;;;;;;;;;;;;;5054806;28;20358;-65
2024/01/31 04:59:21;;;;;;;;;;;;;;;;;;5055216;28;19925;-65
2024/01/31 05:01:46;;;;;;;;;;;;;;;;;;5053714;28;19979;-65
2024/01/31 05:04:12;;;;;;;;;;;;;;;;;;5054857;28;19928;-67
2024/01/31 05:06:38;;;;;;;;;;;;;;;;;;5034664;28;19924;-66
2024/01/31 05:09:04;;;;;;;;;;;;;;;;;;5045159;28;19928;-66
2024/01/31 05:11:30;;;;;;;;;;;;;;;;;;5093206;22;19926;-67
2024/01/31 05:13:56;;;;;;;;;;;;;;;;;;5015120;28;19944;-65
2024/01/31 05:16:22;;;;;;;;;;;;;;;;;;5015555;28;19983;-66
2024/01/31 05:18:48;;;;;;;;;;;;;;;;;;5013705;28;19971;-67
2024/01/31 05:21:14;;;;;;;;;;;;;;;;;;5015002;28;20560;-65
2024/01/31 05:23:40;;;;;;;;;;;;;;;;;;5015397;28;19928;-66
2024/01/31 05:26:06;;;;;;;;;;;;;;;;;;5017733;28;19926;-67
2024/01/31 05:28:32;;;;;;;;;;;;;;;;;;5031025;28;20370;-66
2024/01/31 05:30:58;;;;;;;;;;;;;;;;;;5013653;28;19921;-66
2024/01/31 05:33:24;;;;;;;;;;;;;;;;;;5022991;28;19935;-66
2024/01/31 05:35:50;;;;;;;;;;;;;;;;;;5016824;28;19926;-65
2024/01/31 05:38:16;;;;;;;;;;;;;;;;;;5013292;28;20034;-66
2024/01/31 05:40:44;;;;;;;;;;;;;;;;;;5023136;28;20012;-66
2024/01/31 05:43:10;;;;;;;;;;;;;;;;;;5017337;28;19922;-65
2024/01/31 05:45:37;;;;;;;;;;;;;;;;;;5018320;28;19936;-65
2024/01/31 05:48:03;;;;;;;;;;;;;;;;;;5012833;28;19921;-66
2024/01/31 05:50:29;;;;;;;;;;;;;;;;;;5015595;28;20406;-66
2024/01/31 05:52:55;;;;;;;;;;;;;;;;;;4999300;28;19971;-67
2024/01/31 05:55:21;;;;;;;;;;;;;;;;;;5014961;28;19930;-67
2024/01/31 05:57:47;;;;;;;;;;;;;;;;;;5013824;28;20268;-65
2024/01/31 06:00:13;;;;;;;;;;;;;;;;;;5013061;28;19980;-66
2024/01/31 06:02:39;;;;;;;;;;;;;;;;;;5010333;28;20559;-66
2024/01/31 06:05:05;;;;;;;;;;;;;;;;;;4994179;28;19928;-66
2024/01/31 06:07:31;;;;;;;;;;;;;;;;;;5018119;28;19936;-66
2024/01/31 06:09:57;;;;;;;;;;;;;;;;;;5014058;28;19929;-66
2024/01/31 06:12:23;;;;;;;;;;;;;;;;;;5012731;28;20418;-66
2024/01/31 06:14:49;;;;;;;;;;;;;;;;;;5011175;28;19933;-66
2024/01/31 06:17:16;;;;;;;;;;;;;;;;;;5011621;28;19925;-66
2024/01/31 06:19:42;;;;;;;;;;;;;;;;;;5014175;28;20363;-66
2024/01/31 06:22:08;;;;;;;;;;;;;;;;;;5012804;28;20383;-66
2024/01/31 06:24:35;;;;;;;;;;;;;;;;;;5018181;28;19975;-66
2024/01/31 06:27:00;;;;;;;;;;;;;;;;;;5006009;28;20256;-66
2024/01/31 06:29:26;;;;;;;;;;;;;;;;;;5024082;28;19937;-66
2024/01/31 06:31:56;;;;;;;;;;;;;;;;;;5011369;28;19932;-66
2024/01/31 06:34:22;;;;;;;;;;;;;;;;;;5009561;28;20427;-66
2024/01/31 06:36:48;;;;;;;;;;;;;;;;;;5011941;28;19961;-66
2024/01/31 06:39:14;;;;;;;;;;;;;;;;;;5011086;28;20027;-66
2024/01/31 06:41:40;;;;;;;;;;;;;;;;;;5022020;28;19925;-66
2024/01/31 06:44:06;;;;;;;;;;;;;;;;;;5031737;28;19925;-66
2024/01/31 06:46:32;;;;;;;;;;;;;;;;;;5008488;28;20015;-66
2024/01/31 06:48:58;;;;;;;;;;;;;;;;;;5009773;28;20008;-66
2024/01/31 06:51:24;;;;;;;;;;;;;;;;;;4991278;28;19921;-66
2024/01/31 06:53:50;;;;;;;;;;;;;;;;;;5012983;28;20306;-65
2024/01/31 06:56:17;;;;;;;;;;;;;;;;;;5016327;28;19976;-66
2024/01/31 06:58:42;;;;;;;;;;;;;;;;;;5018975;28;20397;-66
2024/01/31 07:01:08;;;;;;;;;;;;;;;;;;5008542;28;19921;-65
2024/01/31 07:03:36;;;;;;;;;;;;;;;;;;5013108;28;23487;-66
2024/01/31 07:06:02;;;;;;;;;;;;;;;;;;5011569;28;19925;-66
2024/01/31 07:08:28;;;;;;;;;;;;;;;;;;5011433;28;19928;-68
2024/01/31 07:10:54;;;;;;;;;;;;;;;;;;5012325;28;20005;-68
2024/01/31 07:13:20;;;;;;;;;;;;;;;;;;5024514;28;20477;-69
2024/01/31 07:15:47;;;;;;;;;;;;;;;;;;5019500;28;19937;-68
2024/01/31 07:18:13;;;;;;;;;;;;;;;;;;5016641;28;20630;-69
2024/01/31 07:20:39;;;;;;;;;;;;;;;;;;5030904;28;19928;-68
2024/01/31 07:23:05;;;;;;;;;;;;;;;;;;5030999;28;19921;-69
2024/01/31 07:25:31;;;;;;;;;;;;;;;;;;5015213;28;19929;-69
2024/01/31 07:27:57;;;;;;;;;;;;;;;;;;5015648;28;20298;-68
2024/01/31 07:30:23;;;;;;;;;;;;;;;;;;5012213;28;19929;-67
2024/01/31 07:32:49;;;;;;;;;;;;;;;;;;5007766;28;20346;-68
2024/01/31 07:35:15;;;;;;;;;;;;;;;;;;5022083;28;19925;-67
2024/01/31 07:37:41;;;;;;;;;;;;;;;;;;5031994;28;19921;-68
2024/01/31 07:40:09;;;;;;;;;;;;;;;;;;5030155;28;20389;-68
2024/01/31 07:42:35;;;;;;;;;;;;;;;;;;5031366;28;19948;-69
2024/01/31 07:45:02;;;;;;;;;;;;;;;;;;5029470;28;19921;-69
2024/01/31 07:47:28;;;;;;;;;;;;;;;;;;5018094;28;19926;-69
2024/01/31 07:49:54;;;;;;;;;;;;;;;;;;5012221;28;19922;-69
2024/01/31 07:52:20;;;;;;;;;;;;;;;;;;5009328;28;19926;-69
2024/01/31 07:54:46;;;;;;;;;;;;;;;;;;5012085;28;19933;-69
2024/01/31 07:57:12;;;;;;;;;;;;;;;;;;5012266;28;19945;-68
2024/01/31 07:59:38;;;;;;;;;;;;;;;;;;5012199;28;20291;-69
2024/01/31 08:02:04;;;;;;;;;;;;;;;;;;5007142;28;20048;-68
2024/01/31 08:04:30;;;;;;;;;;;;;;;;;;5006482;28;19929;-69
2024/01/31 08:06:56;;;;;;;;;;;;;;;;;;5009905;28;19921;-69
2024/01/31 08:09:23;;;;;;;;;;;;;;;;;;5032006;28;19998;-69
2024/01/31 08:11:49;;;;;;;;;;;;;;;;;;5031345;28;19975;-68
2024/01/31 08:14:15;;;;;;;;;;;;;;;;;;5031733;28;19972;-68
2024/01/31 08:16:41;;;;;;;;;;;;;;;;;;5031294;28;19921;-68
2024/01/31 08:19:07;;;;;;;;;;;;;;;;;;5023580;28;19937;-70
2024/01/31 08:21:33;;;;;;;;;;;;;;;;;;5009184;28;20695;-69
2024/01/31 08:23:59;;;;;;;;;;;;;;;;;;5016384;28;19921;-69
2024/01/31 08:26:24;;;;;;;;;;;;;;;;;;5024990;28;19929;-69
2024/01/31 08:28:50;;;;;;;;;;;;;;;;;;5011377;28;19926;-69
2024/01/31 08:31:17;;;;;;;;;;;;;;;;;;5014437;28;20390;-69
2024/01/31 08:33:42;;;;;;;;;;;;;;;;;;4992685;28;20463;-69
2024/01/31 08:36:08;;;;;;;;;;;;;;;;;;5010323;28;19930;-68
2024/01/31 08:38:36;;;;;;;;;;;;;;;;;;5011136;28;19925;-68
2024/01/31 08:41:02;;;;;;;;;;;;;;;;;;5008525;28;19925;-69
2024/01/31 08:43:28;;;;;;;;;;;;;;;;;;5010443;28;20004;-67
2024/01/31 08:45:54;;;;;;;;;;;;;;;;;;5005823;28;20012;-67
2024/01/31 08:48:20;;;;;;;;;;;;;;;;;;5007316;28;20435;-68
2024/01/31 08:50:46;;;;;;;;;;;;;;;;;;5010210;28;20016;-68
2024/01/31 08:53:12;;;;;;;;;;;;;;;;;;5007947;28;20342;-68
2024/01/31 08:55:38;;;;;;;;;;;;;;;;;;5009367;28;19928;-69
2024/01/31 08:58:04;;;;;;;;;;;;;;;;;;5011317;28;19926;-68
2024/01/31 09:00:30;;;;;;;;;;;;;;;;;;5020870;28;20401;-69
2024/01/31 09:02:57;;;;;;;;;;;;;;;;;;5006785;28;19995;-69
2024/01/31 09:05:22;;;;;;;;;;;;;;;;;;5011020;28;19921;-69
2024/01/31 09:07:48;;;;;;;;;;;;;;;;;;5008088;28;20286;-69
2024/01/31 09:10:14;;;;;;;;;;;;;;;;;;5006089;28;20381;-69
2024/01/31 09:12:40;;;;;;;;;;;;;;;;;;5007714;28;19933;-69
2024/01/31 09:15:06;;;;;;;;;;;;;;;;;;5009650;28;19936;-69
2024/01/31 09:17:32;;;;;;;;;;;;;;;;;;5007289;28;19949;-68
2024/01/31 09:19:58;;;;;;;;;;;;;;;;;;5008460;28;19956;-69
2024/01/31 09:22:24;;;;;;;;;;;;;;;;;;5011944;28;20268;-68
2024/01/31 09:24:50;;;;;;;;;;;;;;;;;;5012027;28;19925;-69
2024/01/31 09:27:19;;;;;;;;;;;;;;;;;;5016376;28;19931;-68
2024/01/31 09:29:45;;;;;;;;;;;;;;;;;;5011077;28;20318;-68
2024/01/31 09:32:10;;;;;;;;;;;;;;;;;;5008401;28;19929;-68
2024/01/31 09:34:36;;;;;;;;;;;;;;;;;;5013903;28;19929;-67
2024/01/31 09:37:02;;;;;;;;;;;;;;;;;;5012701;28;19932;-67
2024/01/31 09:39:28;;;;;;;;;;;;;;;;;;5008903;28;19968;-68
2024/01/31 09:41:54;;;;;;;;;;;;;;;;;;5010158;28;20338;-68
2024/01/31 09:44:20;;;;;;;;;;;;;;;;;;5012192;28;19933;-68
2024/01/31 09:46:46;;;;;;;;;;;;;;;;;;5016450;28;20236;-68
2024/01/31 09:49:12;;;;;;;;;;;;;;;;;;5010612;28;19968;-69
2024/01/31 09:51:38;;;;;;;;;;;;;;;;;;5014489;28;19944;-68
2024/01/31 09:54:04;;;;;;;;;;;;;;;;;;5014826;28;20338;-68
2024/01/31 09:56:32;;;;;;;;;;;;;;;;;;5012404;28;20382;-68
2024/01/31 09:58:57;;;;;;;;;;;;;;;;;;5025239;28;20013;-68
2024/01/31 10:01:24;;;;;;;;;;;;;;;;;;5009056;28;20016;-68
2024/01/31 10:03:51;;;;;;;;;;;;;;;;;;5013719;28;19927;-67
2024/01/31 10:06:17;;;;;;;;;;;;;;;;;;5009927;28;19925;-68
2024/01/31 10:08:43;;;;;;;;;;;;;;;;;;5008930;28;19929;-68
2024/01/31 10:11:09;;;;;;;;;;;;;;;;;;5016831;28;20275;-67
2024/01/31 10:13:35;;;;;;;;;;;;;;;;;;5017822;28;20378;-69
2024/01/31 10:16:01;;;;;;;;;;;;;;;;;;5018787;28;19929;-69
2024/01/31 10:18:28;;;;;;;;;;;;;;;;;;5019414;28;20422;-69
2024/01/31 10:20:55;;;;;;;;;;;;;;;;;;5006744;28;19926;-69
2024/01/31 10:23:20;;;;;;;;;;;;;;;;;;5012783;28;19932;-69
2024/01/31 10:25:46;;;;;;;;;;;;;;;;;;5011679;28;19925;-70
2024/01/31 10:28:18;;;;;;;;;;;;;;;;;;5017333;28;19921;-69
2024/01/31 10:30:44;;;;;;;;;;;;;;;;;;5015225;28;19926;-70
2024/01/31 10:33:10;;;;;;;;;;;;;;;;;;5011558;28;19925;-68
2024/01/31 10:35:36;;;;;;;;;;;;;;;;;;5008771;28;19970;-68
2024/01/31 10:38:02;;;;;;;;;;;;;;;;;;5033117;28;19953;-68
2024/01/31 10:40:28;;;;;;;;;;;;;;;;;;5030906;28;19921;-68
2024/01/31 10:42:54;;;;;;;;;;;;;;;;;;5032036;28;20107;-68
2024/01/31 10:45:20;;;;;;;;;;;;;;;;;;5028609;28;20012;-68
2024/01/31 10:47:46;;;;;;;;;;;;;;;;;;5004068;28;20298;-68
2024/01/31 10:50:12;;;;;;;;;;;;;;;;;;5015786;28;19930;-68
2024/01/31 10:52:38;;;;;;;;;;;;;;;;;;5001412;28;19928;-68
2024/01/31 10:55:04;;;;;;;;;;;;;;;;;;5014426;28;19951;-69
2024/01/31 10:57:30;;;;;;;;;;;;;;;;;;5023755;28;20327;-69
2024/01/31 10:59:56;;;;;;;;;;;;;;;;;;5014000;28;20004;-69
2024/01/31 11:02:22;;;;;;;;;;;;;;;;;;5015156;28;20397;-69
2024/01/31 11:04:48;;;;;;;;;;;;;;;;;;5010609;28;19925;-68
2024/01/31 11:07:13;;;;;;;;;;;;;;;;;;5008850;28;19921;-69
2024/01/31 11:09:39;;;;;;;;;;;;;;;;;;5010087;28;19929;-68
2024/01/31 11:12:06;;;;;;;;;;;;;;;;;;5007254;28;20421;-69
2024/01/31 11:14:32;;;;;;;;;;;;;;;;;;5007373;28;19926;-69
2024/01/31 11:16:57;;;;;;;;;;;;;;;;;;5016693;28;19931;-69
2024/01/31 11:19:23;;;;;;;;;;;;;;;;;;5010830;28;20680;-69
2024/01/31 11:21:49;;;;;;;;;;;;;;;;;;5004846;28;19975;-69
2024/01/31 11:24:15;;;;;;;;;;;;;;;;;;5001717;28;19922;-69
2024/01/31 11:26:41;;;;;;;;;;;;;;;;;;5035721;22;19979;-66
2024/01/31 11:29:08;;;;;;;;;;;;;;;;;;5010100;28;20745;-68
2024/01/31 11:31:34;;;;;;;;;;;;;;;;;;5014153;28;19953;-68
2024/01/31 11:34:00;;;;;;;;;;;;;;;;;;5020459;28;20002;-67
2024/01/31 11:36:26;;;;;;;;;;;;;;;;;;5013546;28;20390;-68
2024/01/31 11:38:52;;;;;;;;;;;;;;;;;;5019662;28;19928;-67
2024/01/31 11:41:18;;;;;;;;;;;;;;;;;;5027494;28;19921;-67
2024/01/31 11:43:44;;;;;;;;;;;;;;;;;;5022881;28;19946;-67
2024/01/31 11:46:10;;;;;;;;;;;;;;;;;;5028381;28;19921;-67
2024/01/31 11:48:36;;;;;;;;;;;;;;;;;;5023133;28;19921;-67
2024/01/31 11:51:04;;;;;;;;;;;;;;;;;;5023802;28;19928;-68
2024/01/31 11:53:30;;;;;;;;;;;;;;;;;;5021508;28;20406;-67
2024/01/31 11:55:56;;;;;;;;;;;;;;;;;;5016279;28;20032;-67
2024/01/31 11:58:21;;;;;;;;;;;;;;;;;;5028075;28;19928;-68
2024/01/31 12:00:48;;;;;;;;;;;;;;;;;;5025745;28;19925;-68
2024/01/31 12:03:14;;;;;;;;;;;;;;;;;;5030691;28;20003;-68
2024/01/31 12:05:40;;;;;;;;;;;;;;;;;;5030051;28;20008;-68
2024/01/31 12:08:06;;;;;;;;;;;;;;;;;;5024581;28;20003;-67
2024/01/31 12:10:32;;;;;;;;;;;;;;;;;;5012290;28;19929;-68
2024/01/31 12:13:00;;;;;;;;;;;;;;;;;;5024169;28;20030;-68
2024/01/31 12:15:26;;;;;;;;;;;;;;;;;;5026591;28;20235;-67
2024/01/31 12:17:52;;;;;;;;;;;;;;;;;;5028887;28;19935;-67
2024/01/31 12:20:18;;;;;;;;;;;;;;;;;;5028367;28;19921;-68
2024/01/31 12:22:46;;;;;;;;;;;;;;;;;;5025316;28;19968;-67
2024/01/31 12:25:12;;;;;;;;;;;;;;;;;;5027107;28;19972;-68
2024/01/31 12:27:38;;;;;;;;;;;;;;;;;;5028878;28;20382;-68
2024/01/31 12:30:04;;;;;;;;;;;;;;;;;;5027254;28;19940;-68
2024/01/31 12:32:30;;;;;;;;;;;;;;;;;;5026388;28;19921;-68
2024/01/31 12:34:56;;;;;;;;;;;;;;;;;;5023308;28;19940;-68
2024/01/31 12:37:22;;;;;;;;;;;;;;;;;;5029546;28;19929;-68
2024/01/31 12:39:48;;;;;;;;;;;;;;;;;;5026704;28;20430;-67
2024/01/31 12:42:14;;;;;;;;;;;;;;;;;;5028513;28;19961;-67
2024/01/31 12:44:40;;;;;;;;;;;;;;;;;;5029696;28;19921;-67
2024/01/31 12:47:06;;;;;;;;;;;;;;;;;;5032667;28;19929;-67
2024/01/31 12:49:33;;;;;;;;;;;;;;;;;;5028321;28;19929;-67
2024/01/31 12:51:59;;;;;;;;;;;;;;;;;;5030288;28;19928;-67
2024/01/31 12:54:25;;;;;;;;;;;;;;;;;;5028406;28;19921;-67
2024/01/31 12:56:51;;;;;;;;;;;;;;;;;;5044506;28;19932;-67
2024/01/31 12:59:18;;;;;;;;;;;;;;;;;;5039959;28;19931;-67
2024/01/31 13:01:44;;;;;;;;;;;;;;;;;;5042348;28;20055;-67
2024/01/31 13:04:10;;;;;;;;;;;;;;;;;;5029757;28;20394;-67
2024/01/31 13:06:36;;;;;;;;;;;;;;;;;;5034743;28;19956;-67
2024/01/31 13:09:02;;;;;;;;;;;;;;;;;;5023417;28;19964;-67
2024/01/31 13:11:27;;;;;;;;;;;;;;;;;;5031158;28;20363;-67
2024/01/31 13:13:53;;;;;;;;;;;;;;;;;;5033079;28;19922;-67
2024/01/31 13:16:19;;;;;;;;;;;;;;;;;;5034232;28;19929;-67
2024/01/31 13:18:45;;;;;;;;;;;;;;;;;;5030109;28;19947;-68
2024/01/31 13:21:11;;;;;;;;;;;;;;;;;;5027569;28;20204;-67
2024/01/31 13:23:39;;;;;;;;;;;;;;;;;;5034483;28;19932;-67
2024/01/31 13:26:05;;;;;;;;;;;;;;;;;;5024589;28;20267;-67
2024/01/31 13:28:31;;;;;;;;;;;;;;;;;;5009669;28;20031;-66
2024/01/31 13:30:57;;;;;;;;;;;;;;;;;;5026577;28;20434;-66
2024/01/31 13:33:23;;;;;;;;;;;;;;;;;;5041456;28;19963;-67
2024/01/31 13:35:49;;;;;;;;;;;;;;;;;;5030667;28;19929;-67
2024/01/31 13:38:14;;;;;;;;;;;;;;;;;;5028339;28;19929;-67
2024/01/31 13:40:40;;;;;;;;;;;;;;;;;;5027122;28;20248;-67
2024/01/31 13:43:06;;;;;;;;;;;;;;;;;;5031568;28;19991;-67
2024/01/31 13:45:32;;;;;;;;;;;;;;;;;;5024006;28;19933;-66
2024/01/31 13:47:58;;;;;;;;;;;;;;;;;;5032691;28;20020;-67
2024/01/31 13:50:24;;;;;;;;;;;;;;;;;;5015184;28;20363;-66
2024/01/31 13:52:50;;;;;;;;;;;;;;;;;;5022490;28;20338;-66
2024/01/31 13:55:16;;;;;;;;;;;;;;;;;;5027804;28;19921;-66
2024/01/31 13:57:42;;;;;;;;;;;;;;;;;;5033118;28;19929;-67
2024/01/31 14:00:10;;;;;;;;;;;;;;;;;;5029201;28;19921;-67
2024/01/31 14:02:36;;;;;;;;;;;;;;;;;;5027615;28;19971;-67
2024/01/31 14:05:02;;;;;;;;;;;;;;;;;;5032508;28;19925;-67
2024/01/31 14:07:28;;;;;;;;;;;;;;;;;;5033826;28;20003;-67
2024/01/31 14:09:54;;;;;;;;;;;;;;;;;;5027278;28;20360;-66
2024/01/31 14:12:21;;;;;;;;;;;;;;;;;;5031395;28;20020;-67
2024/01/31 14:14:47;;;;;;;;;;;;;;;;;;5031458;28;19925;-66
2024/01/31 14:17:13;;;;;;;;;;;;;;;;;;5026532;28;19929;-66
2024/01/31 14:19:39;;;;;;;;;;;;;;;;;;5033030;28;19968;-67
2024/01/31 14:22:05;;;;;;;;;;;;;;;;;;5032846;28;19921;-66
2024/01/31 14:24:30;;;;;;;;;;;;;;;;;;5031541;28;20002;-66
2024/01/31 14:26:56;;;;;;;;;;;;;;;;;;5047299;28;19936;-66
2024/01/31 14:29:22;;;;;;;;;;;;;;;;;;5044919;28;19925;-67
2024/01/31 14:31:48;;;;;;;;;;;;;;;;;;5051814;28;19929;-67
2024/01/31 14:34:14;;;;;;;;;;;;;;;;;;5043725;28;19943;-67
2024/01/31 14:36:40;;;;;;;;;;;;;;;;;;5048067;28;20496;-67
2024/01/31 14:39:06;;;;;;;;;;;;;;;;;;5043068;28;19927;-67
2024/01/31 14:41:32;;;;;;;;;;;;;;;;;;5046832;28;19951;-67
2024/01/31 14:43:58;;;;;;;;;;;;;;;;;;5038684;28;20355;-67
2024/01/31 14:46:25;;;;;;;;;;;;;;;;;;5050719;28;19921;-67
2024/01/31 14:48:51;;;;;;;;;;;;;;;;;;5052205;28;20374;-66
2024/01/31 14:51:17;;;;;;;;;;;;;;;;;;5046058;28;19929;-66
2024/01/31 14:53:43;;;;;;;;;;;;;;;;;;5037203;28;20034;-66
2024/01/31 14:56:09;;;;;;;;;;;;;;;;;;5050996;28;19928;-66
2024/01/31 14:58:35;;;;;;;;;;;;;;;;;;5052809;28;19952;-66
2024/01/31 15:01:00;;;;;;;;;;;;;;;;;;5037157;28;19927;-66
2024/01/31 15:03:26;;;;;;;;;;;;;;;;;;5051827;28;19947;-66
2024/01/31 15:05:52;;;;;;;;;;;;;;;;;;5056694;28;19995;-66
2024/01/31 15:08:18;;;;;;;;;;;;;;;;;;5043352;28;20020;-67
2024/01/31 15:10:44;;;;;;;;;;;;;;;;;;5033715;28;20338;-67
2024/01/31 15:13:10;;;;;;;;;;;;;;;;;;5045469;28;20365;-68
2024/01/31 15:15:36;;;;;;;;;;;;;;;;;;5046005;28;19929;-68
2024/01/31 15:18:03;;;;;;;;;;;;;;;;;;5047152;28;19921;-68
2024/01/31 15:20:29;;;;;;;;;;;;;;;;;;5028507;28;20377;-68
2024/01/31 15:22:55;;;;;;;;;;;;;;;;;;5045536;28;19996;-68
2024/01/31 15:25:21;;;;;;;;;;;;;;;;;;5034870;28;20006;-66
2024/01/31 15:27:47;;;;;;;;;;;;;;;;;;5026127;28;19929;-67
2024/01/31 15:30:13;;;;;;;;;;;;;;;;;;5044568;28;19950;-68
2024/01/31 15:32:39;;;;;;;;;;;;;;;;;;5047166;28;19924;-69
2024/01/31 15:35:05;;;;;;;;;;;;;;;;;;5047216;28;19931;-69
2024/01/31 15:37:31;;;;;;;;;;;;;;;;;;5028635;28;19925;-69
2024/01/31 15:39:57;;;;;;;;;;;;;;;;;;5039517;28;19936;-68
2024/01/31 15:42:23;;;;;;;;;;;;;;;;;;5044786;28;19931;-68
2024/01/31 15:44:49;;;;;;;;;;;;;;;;;;5019862;28;19932;-68
2024/01/31 15:47:16;;;;;;;;;;;;;;;;;;5030672;28;20306;-68
2024/01/31 15:49:42;;;;;;;;;;;;;;;;;;5042956;28;19931;-68
2024/01/31 15:52:08;;;;;;;;;;;;;;;;;;5034395;28;19976;-68
2024/01/31 15:54:33;;;;;;;;;;;;;;;;;;5047081;28;20008;-68
2024/01/31 15:56:59;;;;;;;;;;;;;;;;;;5050601;28;20011;-68
2024/01/31 15:59:27;;;;;;;;;;;;;;;;;;5049691;28;19924;-68
2024/01/31 16:01:53;;;;;;;;;;;;;;;;;;5029164;28;19945;-68
2024/01/31 16:04:19;;;;;;;;;;;;;;;;;;5043505;28;20341;-69
2024/01/31 16:06:48;;;;;;;;;;;;;;;;;;5050046;28;19931;-68
2024/01/31 16:09:14;;;;;;;;;;;;;;;;;;5038125;28;19925;-68
2024/01/31 16:11:40;;;;;;;;;;;;;;;;;;5033304;28;19929;-68
2024/01/31 16:14:06;;;;;;;;;;;;;;;;;;5036421;28;19925;-67
2024/01/31 16:16:32;;;;;;;;;;;;;;;;;;5051688;28;19924;-68
2024/01/31 16:18:58;;;;;;;;;;;;;;;;;;5038926;28;19924;-67
2024/01/31 16:21:24;;;;;;;;;;;;;;;;;;5044705;28;20408;-67
2024/01/31 16:23:50;;;;;;;;;;;;;;;;;;5051200;28;19932;-68
2024/01/31 16:26:16;;;;;;;;;;;;;;;;;;5036797;28;19924;-68
2024/01/31 16:28:42;;;;;;;;;;;;;;;;;;5051303;28;19932;-68
2024/01/31 16:31:08;;;;;;;;;;;;;;;;;;5047213;28;19979;-68
2024/01/31 16:33:34;;;;;;;;;;;;;;;;;;5042038;28;20597;-68
2024/01/31 16:36:00;;;;;;;;;;;;;;;;;;5035818;28;19929;-68
2024/01/31 16:38:26;;;;;;;;;;;;;;;;;;5032684;28;19924;-68